Magnum 1 — CRLV — position and weather

sailwx.info

Track history (hours):
 
Tides and Currents Weather Stations Pressure Air Temp Water Temp Dewpoint Dewpoint Depression Visibility Wind Speed Wind Dir Waves Ship Positions

Magnum 1

Last reported at 2017-Apr-11 23:08 UTC. Time now 2017-Aug-23 19:32 UTC.
Position N 39°06' W 009°29'.
Warning: this ship's position is months out of date.

Length 11 m.

Type: Sailing vessel. MMSI: 263970000.

Date/timePositionNaut miles runAvg speedWind from/ knotsBaromVisibWave heightAir tempDewpointWater temp
2017-Apr-11 23:08N 39°06' W 009°29'1 6.5
2017-Apr-11 22:59N 39°05' W 009°29'3 6.5
2017-Apr-11 22:30N 39°02' W 009°30'3 6.2
2017-Apr-11 22:00N 38°59' W 009°30'3 6.1
2017-Apr-11 21:30N 38°56' W 009°30'3 5.9
2017-Apr-11 21:00N 38°53' W 009°31'3 6.2
2017-Apr-11 20:30N 38°50' W 009°31'3 5.5
2017-Apr-11 20:00N 38°47' W 009°31'2 4.8
2017-Apr-11 19:30N 38°45' W 009°31'2 4.9
2017-Apr-11 19:00N 38°42' W 009°30'4 4.6
2017-Apr-11 18:13N 38°41' W 009°26'1 4.6
2017-Apr-11 17:59N 38°41' W 009°24'2 5.1
2017-Apr-11 17:29N 38°40' W 009°21'5 6.2
2017-Apr-11 16:43N 38°41' W 009°15'1 0.0
2017-Apr-10 14:33N 38°41' W 009°14'0 0.8
2017-Apr-10 14:10N 38°41' W 009°14'  
Track history (hours):
 
Tides and Currents Weather Stations Pressure Air Temp Water Temp Dewpoint Dewpoint Depression Visibility Wind Speed Wind Dir Waves Ship Positions

Magnum 1

Last reported at 2017-Apr-11 23:08 UTC. Time now 2017-Aug-23 19:32 UTC.
Position N 39°06' W 009°29'.
Warning: this ship's position is months out of date.

Length 11 m.

Type: Sailing vessel. MMSI: 263970000.

Date/timePositionNaut miles runAvg speedWind from/ knotsBaromVisibWave heightAir tempDewpointWater temp
2017-Apr-11 23:08N 39°06' W 009°29'1 6.5
2017-Apr-11 22:59N 39°05' W 009°29'3 6.5
2017-Apr-11 22:30N 39°02' W 009°30'3 6.2
2017-Apr-11 22:00N 38°59' W 009°30'3 6.1
2017-Apr-11 21:30N 38°56' W 009°30'3 5.9
2017-Apr-11 21:00N 38°53' W 009°31'3 6.2
2017-Apr-11 20:30N 38°50' W 009°31'3 5.5
2017-Apr-11 20:00N 38°47' W 009°31'2 4.8
2017-Apr-11 19:30N 38°45' W 009°31'2 4.9
2017-Apr-11 19:00N 38°42' W 009°30'4 4.6
2017-Apr-11 18:13N 38°41' W 009°26'1 4.6
2017-Apr-11 17:59N 38°41' W 009°24'2 5.1
2017-Apr-11 17:29N 38°40' W 009°21'5 6.2
2017-Apr-11 16:43N 38°41' W 009°15'1 0.0
2017-Apr-10 14:33N 38°41' W 009°14'0 0.8
2017-Apr-10 14:10N 38°41' W 009°14'  

Dump ship's entire track history